Heydar Aliyev International Airport


Codes: UBBB/GYD
Name: Heydar Aliyev International Airport
City: Baku
Country: Azerbaijan
Elevation: 10 ft.
Website:
Wikipedia:

Photos at Heydar Aliyev International Airport


   Photos courtesy of SpottingLog. You can add your own sightings and photos by signing up for a free trial today.



No photos found.

Weather at Heydar Aliyev International Airport


Time (UTC)DescriptionTempratureWindCloud coverageVisibilityPressureHumidity
25-Jun-2024 15:00Clear Sky32°C11 mph, S0%10000m1005hPa35%
25-Jun-2024 18:00Few Clouds30°C7 mph, S16%10000m1004hPa40%
25-Jun-2024 21:00Clear Sky28°C7 mph, S9%10000m1004hPa50%
26-Jun-2024 00:00Scattered Clouds25°C27 mph, NW41%10000m1005hPa77%
26-Jun-2024 03:00Overcast Clouds24°C27 mph, N85%10000m1005hPa78%
26-Jun-2024 06:00Overcast Clouds26°C25 mph, N91%10000m1006hPa69%
26-Jun-2024 09:00Overcast Clouds27°C22 mph, N85%10000m1006hPa64%
26-Jun-2024 12:00Broken Clouds27°C25 mph, N73%10000m1005hPa61%
26-Jun-2024 15:00Broken Clouds24°C34 mph, N58%10000m1006hPa74%
26-Jun-2024 18:00Light Rain21°C40 mph, N75%8241m1009hPa79%
26-Jun-2024 21:00Light Rain20°C34 mph, N100%10000m1010hPa75%
27-Jun-2024 00:00Light Rain20°C29 mph, N100%10000m1010hPa76%
27-Jun-2024 03:00Light Rain20°C25 mph, N100%10000m1011hPa67%
27-Jun-2024 06:00Light Rain21°C16 mph, N100%10000m1012hPa64%
27-Jun-2024 09:00Overcast Clouds23°C11 mph, N93%10000m1012hPa52%
27-Jun-2024 12:00Broken Clouds25°C9 mph, N56%10000m1012hPa41%
27-Jun-2024 15:00Clear Sky25°C9 mph, NE2%10000m1012hPa42%
27-Jun-2024 18:00Clear Sky24°C7 mph, NE1%10000m1013hPa46%
27-Jun-2024 21:00Clear Sky24°C4 mph, N0%10000m1013hPa48%
28-Jun-2024 00:00Clear Sky23°C2 mph, N0%10000m1012hPa46%
28-Jun-2024 03:00Clear Sky24°C4 mph, E0%10000m1012hPa45%
28-Jun-2024 06:00Clear Sky26°C7 mph, SE0%10000m1012hPa38%
28-Jun-2024 09:00Clear Sky28°C9 mph, SE0%10000m1011hPa37%
28-Jun-2024 12:00Clear Sky28°C9 mph, SE2%10000m1010hPa38%
28-Jun-2024 15:00Broken Clouds27°C9 mph, E82%10000m1010hPa39%
28-Jun-2024 18:00Broken Clouds26°C9 mph, NE78%10000m1012hPa42%
28-Jun-2024 21:00Overcast Clouds25°C9 mph, N87%10000m1011hPa47%
29-Jun-2024 00:00Overcast Clouds25°C9 mph, N85%10000m1011hPa48%
29-Jun-2024 03:00Broken Clouds25°C4 mph, NE71%10000m1011hPa47%
29-Jun-2024 06:00Broken Clouds26°C4 mph, N84%10000m1012hPa39%
29-Jun-2024 09:00Overcast Clouds28°C7 mph, NE100%10000m1012hPa36%
29-Jun-2024 12:00Broken Clouds28°C13 mph, N67%10000m1012hPa40%
29-Jun-2024 15:00Clear Sky27°C18 mph, N7%10000m1013hPa50%
29-Jun-2024 18:00Few Clouds25°C18 mph, N23%10000m1014hPa57%
29-Jun-2024 21:00Overcast Clouds24°C18 mph, N100%10000m1014hPa62%
30-Jun-2024 00:00Overcast Clouds24°C16 mph, N100%10000m1014hPa61%
30-Jun-2024 03:00Overcast Clouds24°C13 mph, NE100%10000m1014hPa52%
30-Jun-2024 06:00Overcast Clouds25°C9 mph, NE100%10000m1014hPa48%
30-Jun-2024 09:00Broken Clouds27°C9 mph, E61%10000m1014hPa40%
30-Jun-2024 12:00Scattered Clouds27°C9 mph, E30%10000m1013hPa37%